sensor_id;sensor_type;location;lat;lon;timestamp;pressure;altitude;pressure_sealevel;temperature;humidity
70407;BME280;57821;52.202;0.154;2023-01-16T00:00:56;99066.34;;;2.47;91.10
70407;BME280;57821;52.202;0.154;2023-01-16T00:03:23;99059.50;;;2.45;91.13
70407;BME280;57821;52.202;0.154;2023-01-16T00:05:49;99057.81;;;2.48;90.65
70407;BME280;57821;52.202;0.154;2023-01-16T00:08:16;99040.75;;;2.41;90.93
70407;BME280;57821;52.202;0.154;2023-01-16T00:10:43;99039.91;;;2.48;91.08
70407;BME280;57821;52.202;0.154;2023-01-16T00:13:11;99033.09;;;2.47;90.80
70407;BME280;57821;52.202;0.154;2023-01-16T00:15:43;99031.38;;;2.48;91.41
70407;BME280;57821;52.202;0.154;2023-01-16T00:18:10;99032.25;;;2.48;91.23
70407;BME280;57821;52.202;0.154;2023-01-16T00:20:37;99027.13;;;2.48;90.96
70407;BME280;57821;52.202;0.154;2023-01-16T00:23:03;99020.28;;;2.47;91.44
70407;BME280;57821;52.202;0.154;2023-01-16T00:25:30;99013.47;;;2.46;90.76
70407;BME280;57821;52.202;0.154;2023-01-16T00:27:57;99007.50;;;2.46;91.44
70407;BME280;57821;52.202;0.154;2023-01-16T00:30:23;98991.28;;;2.36;90.96
70407;BME280;57821;52.202;0.154;2023-01-16T00:32:50;98999.84;;;2.47;90.98
70407;BME280;57821;52.202;0.154;2023-01-16T00:35:17;98993.84;;;2.47;90.62
70407;BME280;57821;52.202;0.154;2023-01-16T00:37:43;98987.88;;;2.46;91.05
70407;BME280;57821;52.202;0.154;2023-01-16T00:40:10;98991.28;;;2.45;91.29
70407;BME280;57821;52.202;0.154;2023-01-16T00:42:37;98964.88;;;2.42;91.21
70407;BME280;57821;52.202;0.154;2023-01-16T00:45:03;98970.84;;;2.42;90.97
70407;BME280;57821;52.202;0.154;2023-01-16T00:47:30;98953.78;;;2.35;91.16
70407;BME280;57821;52.202;0.154;2023-01-16T00:49:57;98950.38;;;2.36;90.91
70407;BME280;57821;52.202;0.154;2023-01-16T00:52:23;98963.16;;;2.39;90.53
70407;BME280;57821;52.202;0.154;2023-01-16T00:54:50;98929.88;;;2.27;90.48
70407;BME280;57821;52.202;0.154;2023-01-16T00:57:16;98941.00;;;2.35;91.20
70407;BME280;57821;52.202;0.154;2023-01-16T00:59:43;98925.63;;;2.34;91.33
70407;BME280;57821;52.202;0.154;2023-01-16T01:02:09;98925.63;;;2.35;90.92
70407;BME280;57821;52.202;0.154;2023-01-16T01:04:36;98929.91;;;2.33;90.82
70407;BME280;57821;52.202;0.154;2023-01-16T01:07:03;98911.16;;;2.30;91.52
70407;BME280;57821;52.202;0.154;2023-01-16T01:09:30;98906.03;;;2.28;90.81
70407;BME280;57821;52.202;0.154;2023-01-16T01:11:57;98893.25;;;2.27;90.97
70407;BME280;57821;52.202;0.154;2023-01-16T01:14:24;98893.25;;;2.27;90.94
70407;BME280;57821;52.202;0.154;2023-01-16T01:16:51;98877.91;;;2.21;91.56
70407;BME280;57821;52.202;0.154;2023-01-16T01:19:18;98885.56;;;2.28;91.72
70407;BME280;57821;52.202;0.154;2023-01-16T01:21:45;98876.22;;;2.26;91.77
70407;BME280;57821;52.202;0.154;2023-01-16T01:24:12;98878.75;;;2.27;91.58
70407;BME280;57821;52.202;0.154;2023-01-16T01:26:38;98865.13;;;2.25;91.83
70407;BME280;57821;52.202;0.154;2023-01-16T01:29:05;98865.13;;;2.22;91.37
70407;BME280;57821;52.202;0.154;2023-01-16T01:31:32;98842.97;;;2.21;91.83
70407;BME280;57821;52.202;0.154;2023-01-16T01:33:58;98844.66;;;2.22;91.72
70407;BME280;57821;52.202;0.154;2023-01-16T01:36:25;98830.19;;;2.20;91.69
70407;BME280;57821;52.202;0.154;2023-01-16T01:38:52;98840.38;;;2.27;91.65
70407;BME280;57821;52.202;0.154;2023-01-16T01:41:18;98828.47;;;2.23;92.06
70407;BME280;57821;52.202;0.154;2023-01-16T01:43:50;98822.47;;;2.27;92.08
70407;BME280;57821;52.202;0.154;2023-01-16T01:48:44;98802.06;;;2.21;92.22
70407;BME280;57821;52.202;0.154;2023-01-16T01:51:25;98796.94;;;2.26;92.06
70407;BME280;57821;52.202;0.154;2023-01-16T01:53:55;98779.88;;;2.28;91.87
70407;BME280;57821;52.202;0.154;2023-01-16T01:56:36;98764.53;;;2.23;91.95
70407;BME280;57821;52.202;0.154;2023-01-16T01:59:07;98767.94;;;2.25;92.02
70407;BME280;57821;52.202;0.154;2023-01-16T02:01:37;98750.03;;;2.22;91.62
70407;BME280;57821;52.202;0.154;2023-01-16T02:04:10;98759.41;;;2.29;91.59
70407;BME280;57821;52.202;0.154;2023-01-16T02:06:53;98752.59;;;2.25;92.25
70407;BME280;57821;52.202;0.154;2023-01-16T02:09:23;98752.59;;;2.28;92.05
70407;BME280;57821;52.202;0.154;2023-01-16T02:12:29;98752.59;;;2.28;92.28
70407;BME280;57821;52.202;0.154;2023-01-16T02:14:48;98730.44;;;2.23;92.38
70407;BME280;57821;52.202;0.154;2023-01-16T02:17:19;98736.38;;;2.28;92.04
70407;BME280;57821;52.202;0.154;2023-01-16T02:20:19;98738.09;;;2.30;91.88
70407;BME280;57821;52.202;0.154;2023-01-16T02:31:38;98710.81;;;2.37;92.25
70407;BME280;57821;52.202;0.154;2023-01-16T02:36:55;98692.91;;;2.38;92.05
70407;BME280;57821;52.202;0.154;2023-01-16T02:42:08;98679.22;;;2.39;92.26
70407;BME280;57821;52.202;0.154;2023-01-16T02:45:01;98674.97;;;2.43;92.13
70407;BME280;57821;52.202;0.154;2023-01-16T02:55:40;98630.63;;;2.45;92.42
70407;BME280;57821;52.202;0.154;2023-01-16T02:58:09;98629.75;;;2.48;91.85
70407;BME280;57821;52.202;0.154;2023-01-16T03:00:48;98622.06;;;2.51;91.92
70407;BME280;57821;52.202;0.154;2023-01-16T03:03:36;98624.63;;;2.56;92.32
70407;BME280;57821;52.202;0.154;2023-01-16T03:09:09;98617.72;;;2.64;91.76
70407;BME280;57821;52.202;0.154;2023-01-16T03:11:58;98604.94;;;2.64;91.78
70407;BME280;57821;52.202;0.154;2023-01-16T03:14:38;98598.09;;;2.66;92.33
70407;BME280;57821;52.202;0.154;2023-01-16T03:17:13;98594.66;;;2.70;91.73
70407;BME280;57821;52.202;0.154;2023-01-16T03:19:55;98597.22;;;2.71;92.06
70407;BME280;57821;52.202;0.154;2023-01-16T03:22:54;98583.56;;;2.71;92.38
70407;BME280;57821;52.202;0.154;2023-01-16T03:25:31;98575.91;;;2.71;91.30
70407;BME280;57821;52.202;0.154;2023-01-16T03:28:22;98577.63;;;2.67;91.91
70407;BME280;57821;52.202;0.154;2023-01-16T03:31:11;98573.38;;;2.68;91.85
70407;BME280;57821;52.202;0.154;2023-01-16T03:33:53;98563.19;;;2.62;91.19
70407;BME280;57821;52.202;0.154;2023-01-16T03:36:29;98556.34;;;2.58;92.20
70407;BME280;57821;52.202;0.154;2023-01-16T03:39:01;98556.34;;;2.58;91.62
70407;BME280;57821;52.202;0.154;2023-01-16T03:41:30;98540.16;;;2.59;92.24
70407;BME280;57821;52.202;0.154;2023-01-16T03:44:05;98534.22;;;2.54;91.60
70407;BME280;57821;52.202;0.154;2023-01-16T03:46:40;98536.75;;;2.57;92.06
70407;BME280;57821;52.202;0.154;2023-01-16T03:49:17;98522.25;;;2.57;91.70
70407;BME280;57821;52.202;0.154;2023-01-16T03:51:49;98518.84;;;2.60;92.37
70407;BME280;57821;52.202;0.154;2023-01-16T03:57:25;98511.16;;;2.58;91.99
70407;BME280;57821;52.202;0.154;2023-01-16T03:59:54;98508.59;;;2.57;92.22
70407;BME280;57821;52.202;0.154;2023-01-16T04:02:28;98509.44;;;2.59;92.20
70407;BME280;57821;52.202;0.154;2023-01-16T04:05:17;98506.03;;;2.58;92.17
70407;BME280;57821;52.202;0.154;2023-01-16T04:07:53;98494.09;;;2.59;92.56
70407;BME280;57821;52.202;0.154;2023-01-16T04:10:26;98485.59;;;2.57;92.25
70407;BME280;57821;52.202;0.154;2023-01-16T04:12:57;98487.28;;;2.58;92.33
70407;BME280;57821;52.202;0.154;2023-01-16T04:15:26;98482.16;;;2.58;92.52
70407;BME280;57821;52.202;0.154;2023-01-16T04:17:55;98479.66;;;2.56;91.43
70407;BME280;57821;52.202;0.154;2023-01-16T04:20:22;98465.16;;;2.51;92.34
70407;BME280;57821;52.202;0.154;2023-01-16T04:22:50;98482.16;;;2.58;92.23
70407;BME280;57821;52.202;0.154;2023-01-16T04:25:18;98479.59;;;2.58;92.41
70407;BME280;57821;52.202;0.154;2023-01-16T04:27:45;98477.91;;;2.57;92.49
70407;BME280;57821;52.202;0.154;2023-01-16T04:30:12;98475.34;;;2.58;92.84
70407;BME280;57821;52.202;0.154;2023-01-16T04:32:39;98460.00;;;2.57;92.11
70407;BME280;57821;52.202;0.154;2023-01-16T04:35:05;98462.56;;;2.60;92.27
70407;BME280;57821;52.202;0.154;2023-01-16T04:37:32;98459.13;;;2.61;92.62
70407;BME280;57821;52.202;0.154;2023-01-16T04:39:59;98457.44;;;2.60;92.08
70407;BME280;57821;52.202;0.154;2023-01-16T04:42:25;98448.91;;;2.58;91.91
70407;BME280;57821;52.202;0.154;2023-01-16T04:44:52;98454.03;;;2.61;92.50
70407;BME280;57821;52.202;0.154;2023-01-16T04:47:18;98442.13;;;2.54;92.34
70407;BME280;57821;52.202;0.154;2023-01-16T04:49:45;98448.06;;;2.59;92.48
70407;BME280;57821;52.202;0.154;2023-01-16T04:52:12;98446.34;;;2.58;92.61
70407;BME280;57821;52.202;0.154;2023-01-16T04:54:39;98436.97;;;2.60;92.10
70407;BME280;57821;52.202;0.154;2023-01-16T04:57:06;98436.97;;;2.61;92.43
70407;BME280;57821;52.202;0.154;2023-01-16T04:59:33;98426.72;;;2.60;92.72
70407;BME280;57821;52.202;0.154;2023-01-16T05:01:59;98425.88;;;2.59;92.23
70407;BME280;57821;52.202;0.154;2023-01-16T05:04:26;98434.34;;;2.66;92.32
70407;BME280;57821;52.202;0.154;2023-01-16T05:06:53;98430.94;;;2.67;92.15
70407;BME280;57821;52.202;0.154;2023-01-16T05:09:19;98426.69;;;2.66;92.51
70407;BME280;57821;52.202;0.154;2023-01-16T05:11:46;98421.59;;;2.61;92.51
70407;BME280;57821;52.202;0.154;2023-01-16T05:14:12;98412.25;;;2.59;92.41
70407;BME280;57821;52.202;0.154;2023-01-16T05:16:40;98409.69;;;2.59;92.10
70407;BME280;57821;52.202;0.154;2023-01-16T05:19:06;98411.38;;;2.60;92.45
70407;BME280;57821;52.202;0.154;2023-01-16T05:21:33;98412.25;;;2.59;92.37
70407;BME280;57821;52.202;0.154;2023-01-16T05:24:00;98404.63;;;2.53;92.37
70407;BME280;57821;52.202;0.154;2023-01-16T05:26:26;98412.28;;;2.53;92.80
70407;BME280;57821;52.202;0.154;2023-01-16T05:28:53;98416.56;;;2.51;93.23
70407;BME280;57821;52.202;0.154;2023-01-16T05:31:20;98419.97;;;2.54;92.83
70407;BME280;57821;52.202;0.154;2023-01-16T05:33:46;98410.59;;;2.52;92.76
70407;BME280;57821;52.202;0.154;2023-01-16T05:36:13;98418.22;;;2.58;93.45
70407;BME280;57821;52.202;0.154;2023-01-16T05:38:40;98407.13;;;2.57;92.88
70407;BME280;57821;52.202;0.154;2023-01-16T05:41:06;98393.53;;;2.54;93.39
70407;BME280;57821;52.202;0.154;2023-01-16T05:43:33;98401.16;;;2.57;93.30
70407;BME280;57821;52.202;0.154;2023-01-16T05:45:59;98405.41;;;2.61;93.36
70407;BME280;57821;52.202;0.154;2023-01-16T05:48:26;98407.06;;;2.63;93.61
70407;BME280;57821;52.202;0.154;2023-01-16T05:50:53;98404.56;;;2.62;92.92
70407;BME280;57821;52.202;0.154;2023-01-16T05:53:19;98399.44;;;2.62;93.27
70407;BME280;57821;52.202;0.154;2023-01-16T05:55:46;98387.44;;;2.64;93.93
70407;BME280;57821;52.202;0.154;2023-01-16T05:58:15;98400.19;;;2.71;93.46
70407;BME280;57821;52.202;0.154;2023-01-16T06:00:42;98399.34;;;2.71;93.21
70407;BME280;57821;52.202;0.154;2023-01-16T06:03:08;98390.81;;;2.72;93.00
70407;BME280;57821;52.202;0.154;2023-01-16T06:05:35;98392.47;;;2.76;92.76
70407;BME280;57821;52.202;0.154;2023-01-16T06:08:02;98394.16;;;2.78;93.00
70407;BME280;57821;52.202;0.154;2023-01-16T06:10:28;98383.91;;;2.78;93.08
70407;BME280;57821;52.202;0.154;2023-01-16T06:12:55;98394.94;;;2.83;93.12
70407;BME280;57821;52.202;0.154;2023-01-16T06:15:22;98389.84;;;2.82;92.91
70407;BME280;57821;52.202;0.154;2023-01-16T06:17:48;98391.50;;;2.86;93.07
70407;BME280;57821;52.202;0.154;2023-01-16T06:20:15;98381.25;;;2.87;93.34
70407;BME280;57821;52.202;0.154;2023-01-16T06:22:43;98386.34;;;2.91;93.71
70407;BME280;57821;52.202;0.154;2023-01-16T06:25:11;98388.88;;;2.92;92.83
70407;BME280;57821;52.202;0.154;2023-01-16T06:27:38;98386.28;;;2.95;93.19
70407;BME280;57821;52.202;0.154;2023-01-16T06:30:06;98385.38;;;2.99;93.33
70407;BME280;57821;52.202;0.154;2023-01-16T06:32:32;98388.78;;;3.01;93.04
70407;BME280;57821;52.202;0.154;2023-01-16T06:35:00;98390.44;;;3.05;93.03
70407;BME280;57821;52.202;0.154;2023-01-16T06:37:27;98392.13;;;3.08;92.73
70407;BME280;57821;52.202;0.154;2023-01-16T06:39:53;98390.34;;;3.14;93.36
70407;BME280;57821;52.202;0.154;2023-01-16T06:42:20;98374.22;;;3.08;93.29
70407;BME280;57821;52.202;0.154;2023-01-16T06:44:46;98390.25;;;3.20;92.89
70407;BME280;57821;52.202;0.154;2023-01-16T06:47:13;98381.75;;;3.18;93.27
70407;BME280;57821;52.202;0.154;2023-01-16T06:49:39;98376.63;;;3.18;93.26
70407;BME280;57821;52.202;0.154;2023-01-16T06:52:06;98387.66;;;3.23;92.77
70407;BME280;57821;52.202;0.154;2023-01-16T06:54:32;98384.25;;;3.24;92.90
70407;BME280;57821;52.202;0.154;2023-01-16T06:56:59;98387.59;;;3.29;91.79
70407;BME280;57821;52.202;0.154;2023-01-16T06:59:25;98373.16;;;3.24;91.85
70407;BME280;57821;52.202;0.154;2023-01-16T07:01:52;98389.28;;;3.30;92.72
70407;BME280;57821;52.202;0.154;2023-01-16T07:04:19;98386.75;;;3.27;92.46
70407;BME280;57821;52.202;0.154;2023-01-16T07:06:46;98377.44;;;3.20;91.79
70407;BME280;57821;52.202;0.154;2023-01-16T07:09:12;98380.00;;;3.20;92.37
70407;BME280;57821;52.202;0.154;2023-01-16T07:11:39;98393.66;;;3.22;91.57
70407;BME280;57821;52.202;0.154;2023-01-16T07:14:05;98401.41;;;3.18;91.36
70407;BME280;57821;52.202;0.154;2023-01-16T07:16:32;98388.72;;;3.07;91.68
70407;BME280;57821;52.202;0.154;2023-01-16T07:18:59;98396.41;;;3.06;91.54
70407;BME280;57821;52.202;0.154;2023-01-16T07:21:27;98395.63;;;3.01;92.17
70407;BME280;57821;52.202;0.154;2023-01-16T07:23:59;98400.78;;;2.96;91.37
70407;BME280;57821;52.202;0.154;2023-01-16T07:26:27;98389.78;;;2.86;91.57
70407;BME280;57821;52.202;0.154;2023-01-16T07:28:55;98390.63;;;2.87;92.43
70407;BME280;57821;52.202;0.154;2023-01-16T07:31:22;98395.75;;;2.87;92.33
70407;BME280;57821;52.202;0.154;2023-01-16T07:33:50;98391.56;;;2.80;92.76
70407;BME280;57821;52.202;0.154;2023-01-16T07:36:16;98384.75;;;2.79;92.87
70407;BME280;57821;52.202;0.154;2023-01-16T07:38:43;98392.38;;;2.85;92.96
70407;BME280;57821;52.202;0.154;2023-01-16T07:41:10;98391.59;;;2.78;92.64
70407;BME280;57821;52.202;0.154;2023-01-16T07:43:36;98388.22;;;2.73;92.09
70407;BME280;57821;52.202;0.154;2023-01-16T07:46:03;98403.59;;;2.73;92.73
70407;BME280;57821;52.202;0.154;2023-01-16T07:48:30;98398.47;;;2.73;93.43
70407;BME280;57821;52.202;0.154;2023-01-16T07:50:58;98390.88;;;2.64;92.65
70407;BME280;57821;52.202;0.154;2023-01-16T07:53:27;98391.75;;;2.62;93.52
70407;BME280;57821;52.202;0.154;2023-01-16T07:55:56;98386.72;;;2.53;92.63
70407;BME280;57821;52.202;0.154;2023-01-16T07:58:23;98401.19;;;2.54;92.74
70407;BME280;57821;52.202;0.154;2023-01-16T08:00:53;98391.03;;;2.47;93.65
70407;BME280;57821;52.202;0.154;2023-01-16T08:03:20;98399.53;;;2.50;93.38
70407;BME280;57821;52.202;0.154;2023-01-16T08:05:47;98400.41;;;2.45;93.57
70407;BME280;57821;52.202;0.154;2023-01-16T08:08:13;98404.66;;;2.46;94.33
70407;BME280;57821;52.202;0.154;2023-01-16T08:10:40;98391.94;;;2.39;94.27
70407;BME280;57821;52.202;0.154;2023-01-16T08:13:06;98401.31;;;2.41;94.24
70407;BME280;57821;52.202;0.154;2023-01-16T08:15:33;98393.69;;;2.37;94.11
70407;BME280;57821;52.202;0.154;2023-01-16T08:18:00;98394.53;;;2.37;94.85
70407;BME280;57821;52.202;0.154;2023-01-16T08:20:26;98408.16;;;2.38;94.67
70407;BME280;57821;52.202;0.154;2023-01-16T08:22:53;98404.78;;;2.34;94.95
70407;BME280;57821;52.202;0.154;2023-01-16T08:25:22;98411.59;;;2.34;94.57
70407;BME280;57821;52.202;0.154;2023-01-16T08:27:49;98420.97;;;2.35;94.72
70407;BME280;57821;52.202;0.154;2023-01-16T08:30:15;98406.53;;;2.28;95.09
70407;BME280;57821;52.202;0.154;2023-01-16T08:32:45;98412.47;;;2.31;95.50
70407;BME280;57821;52.202;0.154;2023-01-16T08:35:12;98422.72;;;2.31;95.90
70407;BME280;57821;52.202;0.154;2023-01-16T08:37:38;98422.72;;;2.30;95.74
70407;BME280;57821;52.202;0.154;2023-01-16T08:40:05;98426.97;;;2.31;95.90
70407;BME280;57821;52.202;0.154;2023-01-16T08:42:32;98419.31;;;2.29;96.12
70407;BME280;57821;52.202;0.154;2023-01-16T08:44:58;98421.00;;;2.30;96.59
70407;BME280;57821;52.202;0.154;2023-01-16T08:47:25;98425.25;;;2.31;97.21
70407;BME280;57821;52.202;0.154;2023-01-16T08:49:51;98422.69;;;2.33;96.20
70407;BME280;57821;52.202;0.154;2023-01-16T08:52:18;98421.84;;;2.32;96.53
70407;BME280;57821;52.202;0.154;2023-01-16T08:54:44;98426.91;;;2.38;97.06
70407;BME280;57821;52.202;0.154;2023-01-16T08:57:11;98435.41;;;2.40;97.34
70407;BME280;57821;52.202;0.154;2023-01-16T08:59:37;98443.88;;;2.45;97.59
70407;BME280;57821;52.202;0.154;2023-01-16T09:02:04;98433.66;;;2.45;97.91
70407;BME280;57821;52.202;0.154;2023-01-16T09:04:34;98443.00;;;2.53;97.27
70407;BME280;57821;52.202;0.154;2023-01-16T09:07:01;98450.63;;;2.57;98.00
70407;BME280;57821;52.202;0.154;2023-01-16T09:09:28;98438.72;;;2.55;97.84
70407;BME280;57821;52.202;0.154;2023-01-16T09:11:55;98445.44;;;2.65;97.43
70407;BME280;57821;52.202;0.154;2023-01-16T09:14:21;98447.16;;;2.66;96.81
70407;BME280;57821;52.202;0.154;2023-01-16T09:16:52;98451.31;;;2.74;97.04
70407;BME280;57821;52.202;0.154;2023-01-16T09:19:18;98454.72;;;2.78;96.90
70407;BME280;57821;52.202;0.154;2023-01-16T09:21:45;98464.91;;;2.81;97.40
70407;BME280;57821;52.202;0.154;2023-01-16T09:24:11;98459.00;;;2.76;96.72
70407;BME280;57821;52.202;0.154;2023-01-16T09:26:38;98460.63;;;2.83;96.59
70407;BME280;57821;52.202;0.154;2023-01-16T09:29:04;98461.50;;;2.80;97.10
70407;BME280;57821;52.202;0.154;2023-01-16T09:31:31;98464.03;;;2.85;96.63
70407;BME280;57821;52.202;0.154;2023-01-16T09:33:57;98459.78;;;2.82;96.86
70407;BME280;57821;52.202;0.154;2023-01-16T09:36:24;98464.84;;;2.85;96.38
70407;BME280;57821;52.202;0.154;2023-01-16T09:38:50;98463.13;;;2.89;96.90
70407;BME280;57821;52.202;0.154;2023-01-16T09:41:18;98470.75;;;2.95;97.13
70407;BME280;57821;52.202;0.154;2023-01-16T09:43:47;98477.53;;;2.98;97.35
70407;BME280;57821;52.202;0.154;2023-01-16T09:46:23;98486.94;;;2.99;96.69
70407;BME280;57821;52.202;0.154;2023-01-16T09:49:02;98482.66;;;3.02;97.15
70407;BME280;57821;52.202;0.154;2023-01-16T09:51:40;98492.84;;;3.08;96.75
70407;BME280;57821;52.202;0.154;2023-01-16T09:54:16;98482.66;;;3.02;96.67
70407;BME280;57821;52.202;0.154;2023-01-16T09:56:49;98488.56;;;3.07;97.03
70407;BME280;57821;52.202;0.154;2023-01-16T10:01:56;98508.94;;;3.16;95.89
70407;BME280;57821;52.202;0.154;2023-01-16T10:04:28;98502.16;;;3.14;96.21
70407;BME280;57821;52.202;0.154;2023-01-16T10:12:21;98525.09;;;3.24;95.48
70407;BME280;57821;52.202;0.154;2023-01-16T10:15:08;98520.84;;;3.25;96.42
70407;BME280;57821;52.202;0.154;2023-01-16T10:17:52;98530.19;;;3.27;95.75
70407;BME280;57821;52.202;0.154;2023-01-16T10:23:47;98518.22;;;3.26;96.05
70407;BME280;57821;52.202;0.154;2023-01-16T10:26:23;98523.28;;;3.34;95.51
70407;BME280;57821;52.202;0.154;2023-01-16T10:29:53;98527.56;;;3.35;95.84
70407;BME280;57821;52.202;0.154;2023-01-16T10:31:58;98523.34;;;3.29;96.15
70407;BME280;57821;52.202;0.154;2023-01-16T10:34:37;98527.53;;;3.37;95.85
70407;BME280;57821;52.202;0.154;2023-01-16T10:37:06;98533.47;;;3.42;95.81
70407;BME280;57821;52.202;0.154;2023-01-16T10:39:36;98524.94;;;3.40;95.31
70407;BME280;57821;52.202;0.154;2023-01-16T10:45:18;98524.84;;;3.49;95.51
70407;BME280;57821;52.202;0.154;2023-01-16T10:47:43;98521.41;;;3.50;95.23
70407;BME280;57821;52.202;0.154;2023-01-16T10:50:10;98531.59;;;3.56;94.75
70407;BME280;57821;52.202;0.154;2023-01-16T10:52:37;98523.88;;;3.60;94.99
70407;BME280;57821;52.202;0.154;2023-01-16T10:55:05;98538.34;;;3.66;94.75
70407;BME280;57821;52.202;0.154;2023-01-16T10:57:32;98530.59;;;3.70;94.28
70407;BME280;57821;52.202;0.154;2023-01-16T11:00:10;98532.28;;;3.71;94.45
70407;BME280;57821;52.202;0.154;2023-01-16T11:02:43;98539.91;;;3.76;93.78
70407;BME280;57821;52.202;0.154;2023-01-16T11:05:31;98533.03;;;3.80;93.73
70407;BME280;57821;52.202;0.154;2023-01-16T11:10:38;98544.75;;;4.00;93.16
70407;BME280;57821;52.202;0.154;2023-01-16T11:13:19;98534.50;;;4.00;93.49
70407;BME280;57821;52.202;0.154;2023-01-16T11:16:01;98530.06;;;4.11;93.16
70407;BME280;57821;52.202;0.154;2023-01-16T11:18:34;98534.28;;;4.16;92.83
70407;BME280;57821;52.202;0.154;2023-01-16T11:23:43;98542.66;;;4.30;92.40
70407;BME280;57821;52.202;0.154;2023-01-16T11:26:11;98543.47;;;4.32;92.06
70407;BME280;57821;52.202;0.154;2023-01-16T11:28:38;98542.59;;;4.34;90.95
70407;BME280;57821;52.202;0.154;2023-01-16T11:31:19;98544.22;;;4.40;91.34
70407;BME280;57821;52.202;0.154;2023-01-16T11:33:50;98539.94;;;4.40;90.63
70407;BME280;57821;52.202;0.154;2023-01-16T11:36:18;98547.56;;;4.45;90.20
70407;BME280;57821;52.202;0.154;2023-01-16T11:38:46;98536.50;;;4.41;90.02
70407;BME280;57821;52.202;0.154;2023-01-16T11:41:20;98546.78;;;4.41;89.32
70407;BME280;57821;52.202;0.154;2023-01-16T11:46:49;98559.56;;;4.43;88.80
70407;BME280;57821;52.202;0.154;2023-01-16T11:49:23;98563.75;;;4.48;89.37
70407;BME280;57821;52.202;0.154;2023-01-16T11:51:53;98554.41;;;4.46;89.18
70407;BME280;57821;52.202;0.154;2023-01-16T11:54:25;98556.88;;;4.52;88.49
70407;BME280;57821;52.202;0.154;2023-01-16T11:59:45;98559.44;;;4.52;88.62
70407;BME280;57821;52.202;0.154;2023-01-16T12:02:36;98539.03;;;4.43;88.78
70407;BME280;57821;52.202;0.154;2023-01-16T12:13:03;98542.44;;;4.43;88.77
70407;BME280;57821;52.202;0.154;2023-01-16T12:15:47;98550.03;;;4.51;88.34
70407;BME280;57821;52.202;0.154;2023-01-16T12:21:24;98554.31;;;4.52;88.56
70407;BME280;57821;52.202;0.154;2023-01-16T12:27:03;98564.31;;;4.69;86.82
70407;BME280;57821;52.202;0.154;2023-01-16T12:29:53;98550.66;;;4.68;86.58
70407;BME280;57821;52.202;0.154;2023-01-16T12:35:26;98564.31;;;4.70;86.25
70407;BME280;57821;52.202;0.154;2023-01-16T12:38:15;98558.31;;;4.71;86.04
70407;BME280;57821;52.202;0.154;2023-01-16T12:40:59;98578.78;;;4.74;85.54
70407;BME280;57821;52.202;0.154;2023-01-16T12:43:41;98565.09;;;4.75;84.93
70407;BME280;57821;52.202;0.154;2023-01-16T12:46:27;98560.78;;;4.77;82.68
70407;BME280;57821;52.202;0.154;2023-01-16T12:49:00;98564.00;;;4.90;84.44
70407;BME280;57821;52.202;0.154;2023-01-16T12:59:50;98579.22;;;5.02;79.62
70407;BME280;57821;52.202;0.154;2023-01-16T13:05:01;98566.63;;;4.87;79.70
70407;BME280;57821;52.202;0.154;2023-01-16T13:07:33;98575.94;;;4.92;80.10
70407;BME280;57821;52.202;0.154;2023-01-16T13:10:19;98573.38;;;4.94;78.61
70407;BME280;57821;52.202;0.154;2023-01-16T13:12:47;98570.81;;;4.92;78.23
70407;BME280;57821;52.202;0.154;2023-01-16T13:15:22;98579.38;;;4.91;77.91
70407;BME280;57821;52.202;0.154;2023-01-16T13:18:05;98589.72;;;4.88;78.17
70407;BME280;57821;52.202;0.154;2023-01-16T13:20:33;98584.69;;;4.79;79.40
70407;BME280;57821;52.202;0.154;2023-01-16T13:23:03;98578.78;;;4.76;79.46
70407;BME280;57821;52.202;0.154;2023-01-16T13:25:37;98578.84;;;4.71;78.88
70407;BME280;57821;52.202;0.154;2023-01-16T13:28:24;98595.91;;;4.72;78.55
70407;BME280;57821;52.202;0.154;2023-01-16T13:30:55;98601.19;;;4.65;78.17
70407;BME280;57821;52.202;0.154;2023-01-16T13:33:31;98600.38;;;4.61;78.53
70407;BME280;57821;52.202;0.154;2023-01-16T13:36:25;98608.91;;;4.62;77.54
70407;BME280;57821;52.202;0.154;2023-01-16T13:41:59;98610.94;;;4.40;77.88
70407;BME280;57821;52.202;0.154;2023-01-16T13:44:39;98628.97;;;4.34;78.75
70407;BME280;57821;52.202;0.154;2023-01-16T13:47:12;98632.47;;;4.25;77.72
70407;BME280;57821;52.202;0.154;2023-01-16T13:49:40;98635.97;;;4.20;78.17
70407;BME280;57821;52.202;0.154;2023-01-16T13:52:24;98635.97;;;4.20;79.09
70407;BME280;57821;52.202;0.154;2023-01-16T13:54:54;98635.16;;;4.18;78.90
70407;BME280;57821;52.202;0.154;2023-01-16T13:57:24;98621.56;;;4.08;79.24
70407;BME280;57821;52.202;0.154;2023-01-16T13:59:54;98637.75;;;4.14;79.80
70407;BME280;57821;52.202;0.154;2023-01-16T14:10:24;98635.28;;;4.07;78.46
70407;BME280;57821;52.202;0.154;2023-01-16T14:13:01;98649.81;;;4.06;78.58
70407;BME280;57821;52.202;0.154;2023-01-16T14:15:47;98639.69;;;3.94;77.19
70407;BME280;57821;52.202;0.154;2023-01-16T14:18:17;98645.63;;;3.96;77.39
70407;BME280;57821;52.202;0.154;2023-01-16T14:23:23;98648.25;;;3.95;77.25
70407;BME280;57821;52.202;0.154;2023-01-16T14:25:54;98656.81;;;3.91;77.01
70407;BME280;57821;52.202;0.154;2023-01-16T14:28:22;98668.81;;;3.87;77.15
70407;BME280;57821;52.202;0.154;2023-01-16T14:30:52;98656.97;;;3.76;77.72
70407;BME280;57821;52.202;0.154;2023-01-16T14:33:19;98675.75;;;3.78;77.43
70407;BME280;57821;52.202;0.154;2023-01-16T14:35:51;98671.56;;;3.69;76.57
70407;BME280;57821;52.202;0.154;2023-01-16T14:38:20;98680.09;;;3.71;78.14
70407;BME280;57821;52.202;0.154;2023-01-16T14:40:57;98674.97;;;3.71;77.55
70407;BME280;57821;52.202;0.154;2023-01-16T14:43:32;98685.22;;;3.69;77.13
70407;BME280;57821;52.202;0.154;2023-01-16T14:48:42;98663.06;;;3.64;76.89
70407;BME280;57821;52.202;0.154;2023-01-16T14:53:37;98664.78;;;3.62;76.79
70407;BME280;57821;52.202;0.154;2023-01-16T14:56:11;98678.41;;;3.67;77.47
70407;BME280;57821;52.202;0.154;2023-01-16T14:59:04;98680.16;;;3.65;76.64
70407;BME280;57821;52.202;0.154;2023-01-16T15:01:38;98667.38;;;3.60;76.80
70407;BME280;57821;52.202;0.154;2023-01-16T15:04:06;98662.31;;;3.54;77.59
70407;BME280;57821;52.202;0.154;2023-01-16T15:06:41;98669.94;;;3.57;76.69
70407;BME280;57821;52.202;0.154;2023-01-16T15:09:17;98673.41;;;3.52;78.08
70407;BME280;57821;52.202;0.154;2023-01-16T15:11:50;98683.66;;;3.52;77.77